Time;durP1;ratioP1;P1;durP2;ratioP2;P2;SDS_P1;SDS_P2;PMS_P1;PMS_P2;Temp;Humidity;BMP_temperature;BMP_pressure;BME280_temperature;BME280_humidity;BME280_pressure;Samples;Min_cycle;Max_cycle;Signal;HPM_P1;HPM_P2
2023/06/13 00:02:28;;;;;;;5.00;2.50;;;;;;;12.58;90.75;98968.36;105325;1260;72909;-23
2023/06/13 00:04:56;;;;;;;3.50;2.90;;;;;;;12.57;89.63;98964.83;105231;1260;74264;-23
2023/06/13 00:07:23;;;;;;;4.90;3.30;;;;;;;12.34;89.88;98966.52;105214;1260;73188;-23
2023/06/13 00:09:50;;;;;;;5.30;3.10;;;;;;;12.01;91.70;98966.17;105235;1263;61279;-22
2023/06/13 00:12:20;;;;;;;5.20;2.00;;;;;;;11.87;93.32;98966.26;105394;1258;61130;-22
2023/06/13 00:14:50;;;;;;;6.20;2.90;;;;;;;12.34;91.89;98966.89;105216;1260;73042;-22
2023/06/13 00:17:18;;;;;;;3.30;2.80;;;;;;;12.55;89.29;98957.15;105148;1260;75599;-23
2023/06/13 00:19:48;;;;;;;4.60;3.10;;;;;;;12.37;89.68;98958.92;105397;1263;71780;-22
2023/06/13 00:22:15;;;;;;;3.90;2.80;;;;;;;12.06;90.99;98954.90;105294;1259;61167;-22
2023/06/13 00:24:42;;;;;;;7.90;3.30;;;;;;;11.78;92.67;98959.95;105430;1263;61185;-23
2023/06/13 00:27:08;;;;;;;4.70;1.80;;;;;;;11.67;94.11;98954.33;105302;1260;73344;-23
2023/06/13 00:29:36;;;;;;;3.60;2.20;;;;;;;12.23;92.42;98954.09;105367;1260;74317;-22
2023/06/13 00:32:04;;;;;;;6.90;3.00;;;;;;;12.50;89.40;98945.96;105448;1259;71591;-23
2023/06/13 00:34:31;;;;;;;3.20;2.80;;;;;;;12.45;88.91;98939.82;105308;1260;61115;-23
2023/06/13 00:36:59;;;;;;;3.60;2.70;;;;;;;12.25;89.58;98939.12;105260;1262;61176;-23
2023/06/13 00:39:26;;;;;;;6.50;2.90;;;;;;;11.93;91.30;98936.36;105517;1260;73021;-23
2023/06/13 00:41:52;;;;;;;2.10;1.80;;;;;;;11.63;92.92;98939.00;105496;1262;74325;-23
2023/06/13 00:44:19;;;;;;;3.60;2.20;;;;;;;11.87;93.13;98935.38;105375;1262;72344;-23
2023/06/13 00:46:48;;;;;;;5.70;2.60;;;;;;;12.19;90.57;98933.59;105318;1258;61004;-21
2023/06/13 00:49:15;;;;;;;3.60;2.70;;;;;;;11.88;91.26;98928.44;105167;1258;61161;-21
2023/06/13 00:51:42;;;;;;;3.90;2.80;;;;;;;11.67;92.25;98928.16;105207;1260;73608;-22
2023/06/13 00:54:10;;;;;;;5.10;2.70;;;;;;;11.61;92.84;98929.75;105444;1260;74313;-21
2023/06/13 00:56:37;;;;;;;5.30;1.90;;;;;;;11.41;93.68;98927.48;105515;1260;72656;-21
2023/06/13 00:59:04;;;;;;;4.90;1.80;;;;;;;11.78;92.77;98926.20;105443;1260;61065;-21
2023/06/13 01:01:32;;;;;;;3.40;2.30;;;;;;;12.25;89.72;98922.77;105218;1262;61185;-21
2023/06/13 01:03:59;;;;;;;6.50;2.50;;;;;;;11.94;89.59;98918.38;105171;1260;73006;-21
2023/06/13 01:06:29;;;;;;;3.50;2.00;;;;;;;11.81;90.46;98915.34;105409;1262;73130;-21
2023/06/13 01:08:58;;;;;;;4.10;2.40;;;;;;;11.63;91.48;98918.70;105263;1260;72524;-21
2023/06/13 01:11:31;;;;;;;4.30;2.10;;;;;;;11.35;92.98;98924.59;105340;1262;61735;-21
2023/06/13 01:14:14;;;;;;;3.00;1.80;;;;;;;11.60;92.09;98914.77;105210;1259;61153;-22
2023/06/13 01:16:50;;;;;;;2.20;1.90;;;;;;;12.04;89.44;98911.92;105300;1260;73776;-22
2023/06/13 01:19:23;;;;;;;2.30;1.90;;;;;;;12.01;88.69;98908.73;105139;1260;72906;-21
2023/06/13 01:21:51;;;;;;;2.60;2.00;;;;;;;11.73;89.39;98913.79;105207;1264;71135;-22
2023/06/13 01:24:38;;;;;;;7.50;1.90;;;;;;;11.55;90.52;98912.77;105225;1260;61206;-23
2023/06/13 01:27:05;;;;;;;4.60;1.70;;;;;;;11.26;92.24;98916.96;105151;1265;61117;-23
2023/06/13 01:29:34;;;;;;;2.60;1.60;;;;;;;11.56;90.90;98911.94;105255;1260;73861;-23
2023/06/13 01:32:03;;;;;;;4.30;1.90;;;;;;;11.75;89.97;98910.33;105298;1263;74410;-23
2023/06/13 01:34:30;;;;;;;3.60;2.20;;;;;;;12.01;88.54;98911.36;105584;1254;72644;-23
2023/06/13 01:36:57;;;;;;;3.80;2.30;;;;;;;11.51;89.54;98908.08;105448;1253;61236;-23
2023/06/13 01:39:24;;;;;;;3.90;2.10;;;;;;;11.22;91.61;98907.63;105576;1258;61186;-23
2023/06/13 01:41:51;;;;;;;5.70;1.20;;;;;;;11.23;92.07;98910.59;105480;1253;74126;-23
2023/06/13 01:44:18;;;;;;;6.50;1.70;;;;;;;11.50;91.07;98906.70;105289;1253;74018;-23
2023/06/13 01:47:16;;;;;;;2.30;1.20;;;;;;;11.89;88.67;98906.64;105453;1254;72639;-23
2023/06/13 01:50:05;;;;;;;4.90;1.80;;;;;;;11.71;88.87;98903.68;105263;1253;61245;-23
2023/06/13 01:52:35;;;;;;;8.00;2.40;;;;;;;11.33;90.20;98906.86;105359;1259;61150;-23
2023/06/13 01:55:05;;;;;;;6.00;2.00;;;;;;;11.18;91.69;98907.45;105463;1254;74290;-23
2023/06/13 01:57:48;;;;;;;3.90;1.40;;;;;;;11.12;92.26;98909.46;105613;1254;73124;-23
2023/06/13 02:00:16;;;;;;;4.30;1.30;;;;;;;11.33;91.60;98906.51;105573;1257;72180;-23
2023/06/13 02:02:44;;;;;;;4.10;1.60;;;;;;;11.55;90.25;98904.61;105531;1254;61132;-23
2023/06/13 02:05:11;;;;;;;4.80;1.40;;;;;;;11.45;90.17;98907.17;105362;1260;61212;-23
2023/06/13 02:07:38;;;;;;;4.20;1.60;;;;;;;11.44;90.48;98906.27;105499;1253;73791;-23
2023/06/13 02:10:06;;;;;;;3.80;1.50;;;;;;;11.28;90.85;98908.32;105501;1253;74099;-23
2023/06/13 02:12:35;;;;;;;2.80;1.30;;;;;;;11.20;91.54;98910.39;105460;1253;71648;-23
2023/06/13 02:15:03;;;;;;;3.10;2.10;;;;;;;11.77;90.16;98907.50;105597;1254;61159;-23
2023/06/13 02:17:31;;;;;;;8.10;1.80;;;;;;;11.90;87.72;98903.59;105613;1254;61161;-23
2023/06/13 02:19:58;;;;;;;5.10;1.60;;;;;;;11.53;89.08;98905.77;105603;1253;73867;-23
2023/06/13 02:22:26;;;;;;;7.40;1.70;;;;;;;11.42;90.12;98906.56;105666;1253;74847;-23
2023/06/13 02:24:52;;;;;;;4.00;1.10;;;;;;;11.21;91.14;98910.30;105604;1253;72021;-23
2023/06/13 02:27:19;;;;;;;2.90;2.10;;;;;;;11.47;91.05;98915.39;105629;1254;61144;-23
2023/06/13 02:29:48;;;;;;;4.10;2.60;;;;;;;11.83;88.47;98910.48;105640;1253;61067;-23
2023/06/13 02:32:15;;;;;;;5.90;2.40;;;;;;;11.85;87.83;98905.45;105561;1254;73833;-23
2023/06/13 02:34:42;;;;;;;16.20;8.20;;;;;;;11.64;89.06;98907.05;105556;1259;74737;-23
2023/06/13 02:37:09;;;;;;;10.40;6.30;;;;;;;11.26;90.55;98904.48;105658;1254;72648;-23
2023/06/13 02:39:37;;;;;;;8.60;3.80;;;;;;;11.25;91.62;98906.48;105658;1254;62096;-23
2023/06/13 02:42:06;;;;;;;21.00;9.30;;;;;;;11.29;91.32;98907.34;105551;1255;61268;-23
2023/06/13 02:44:34;;;;;;;37.60;19.30;;;;;;;11.39;90.21;98907.20;105462;1260;71562;-23
2023/06/13 02:47:01;;;;;;;77.40;39.10;;;;;;;11.25;91.12;98909.11;105530;1257;74536;-21
2023/06/13 02:49:28;;;;;;;50.90;25.40;;;;;;;11.16;91.34;98910.54;105548;1254;72521;-21
2023/06/13 02:51:55;;;;;;;50.00;24.60;;;;;;;11.06;92.18;98911.55;105625;1256;61132;-21
2023/06/13 02:54:21;;;;;;;40.70;20.90;;;;;;;11.14;92.61;98912.98;105409;1259;61231;-21
2023/06/13 02:56:48;;;;;;;52.60;28.60;;;;;;;11.59;90.02;98909.23;105473;1253;73604;-21
2023/06/13 02:59:15;;;;;;;34.40;19.30;;;;;;;11.54;89.17;98905.53;105593;1254;74281;-21
2023/06/13 03:01:42;;;;;;;42.60;23.10;;;;;;;11.58;89.20;98903.80;105654;1254;72672;-21
2023/06/13 03:04:11;;;;;;;51.60;27.30;;;;;;;11.40;90.31;98909.16;105627;1259;61185;-21
2023/06/13 03:06:40;;;;;;;29.10;13.40;;;;;;;11.28;90.91;98910.01;105579;1259;61100;-21
2023/06/13 03:09:09;;;;;;;59.70;33.50;;;;;;;11.55;89.77;98907.03;105666;1254;73819;-22
2023/06/13 03:11:37;;;;;;;48.50;27.70;;;;;;;11.86;88.33;98909.54;105677;1254;74330;-22
2023/06/13 03:14:04;;;;;;;53.10;28.80;;;;;;;11.82;87.48;98912.67;105686;1254;72637;-22
2023/06/13 03:16:32;;;;;;;36.70;20.30;;;;;;;11.54;88.80;98910.20;105715;1254;61167;-24
2023/06/13 03:19:00;;;;;;;42.00;23.40;;;;;;;11.49;89.45;98915.15;105577;1255;61140;-22
2023/06/13 03:21:30;;;;;;;46.70;24.30;;;;;;;11.31;90.35;98918.14;105593;1254;73906;-22
2023/06/13 03:23:57;;;;;;;41.40;20.70;;;;;;;11.76;89.54;98918.75;105636;1259;74348;-21
2023/06/13 03:26:24;;;;;;;34.30;19.40;;;;;;;11.86;87.35;98915.77;105649;1254;73121;-22
2023/06/13 03:28:51;;;;;;;38.30;20.60;;;;;;;11.90;87.65;98918.36;105454;1256;61157;-22
2023/06/13 03:31:19;;;;;;;37.20;20.90;;;;;;;11.81;87.42;98919.67;105650;1259;61208;-22
2023/06/13 03:33:46;;;;;;;37.40;21.00;;;;;;;11.60;88.72;98920.00;105642;1254;73642;-22
2023/06/13 03:36:13;;;;;;;30.60;17.00;;;;;;;11.60;89.31;98922.61;105643;1259;74959;-22
2023/06/13 03:38:40;;;;;;;20.80;11.90;;;;;;;11.91;88.49;98921.80;105483;1256;72769;-22
2023/06/13 03:41:06;;;;;;;40.20;21.00;;;;;;;12.15;86.16;98921.38;105626;1255;61051;-22
2023/06/13 03:43:34;;;;;;;46.20;24.30;;;;;;;12.11;85.85;98919.32;105672;1255;61143;-22
2023/06/13 03:46:02;;;;;;;31.80;14.30;;;;;;;12.10;86.53;98919.04;105472;1253;73623;-22
2023/06/13 03:48:30;;;;;;;40.70;22.00;;;;;;;11.86;87.43;98918.88;105509;1258;75868;-22
2023/06/13 03:50:57;;;;;;;26.30;11.70;;;;;;;11.82;87.54;98919.27;105396;1257;73380;-22
2023/06/13 03:53:24;;;;;;;15.60;8.90;;;;;;;11.65;88.37;98915.52;105525;1254;61668;-22
2023/06/13 03:55:51;;;;;;;33.70;17.90;;;;;;;12.16;88.32;98918.37;105549;1259;61107;-22
2023/06/13 03:58:20;;;;;;;48.20;27.10;;;;;;;12.60;85.59;98913.89;105633;1254;73533;-22
2023/06/13 04:00:46;;;;;;;20.90;12.90;;;;;;;12.51;84.59;98913.48;105655;1253;74699;-22
2023/06/13 04:03:13;;;;;;;53.20;30.10;;;;;;;12.21;85.39;98913.34;105635;1253;72364;-23
2023/06/13 04:05:41;;;;;;;41.70;24.30;;;;;;;11.80;87.81;98917.76;105633;1254;61104;-22
2023/06/13 04:08:08;;;;;;;20.40;11.40;;;;;;;11.75;88.42;98916.92;105406;1259;61262;-22
2023/06/13 04:10:36;;;;;;;17.20;8.90;;;;;;;12.10;87.48;98918.68;105479;1258;73658;-22
2023/06/13 04:13:03;;;;;;;21.60;12.30;;;;;;;12.34;85.24;98916.39;105572;1259;74105;-22
2023/06/13 04:15:29;;;;;;;33.10;19.10;;;;;;;12.38;85.12;98913.98;105637;1254;72705;-22
2023/06/13 04:17:56;;;;;;;49.30;27.40;;;;;;;12.42;84.96;98914.80;105514;1254;61147;-23
2023/06/13 04:20:24;;;;;;;30.60;19.00;;;;;;;12.31;85.33;98914.30;105555;1255;61096;-22
2023/06/13 04:22:52;;;;;;;20.90;11.40;;;;;;;11.98;86.54;98914.23;105580;1253;73599;-22
2023/06/13 04:25:19;;;;;;;28.70;15.00;;;;;;;11.98;87.79;98916.06;105681;1259;74317;-22
2023/06/13 04:27:48;;;;;;;21.00;12.80;;;;;;;12.46;85.64;98909.08;105572;1254;72649;-22
2023/06/13 04:30:15;;;;;;;18.40;7.40;;;;;;;12.85;82.78;98909.34;105550;1257;61055;-22
2023/06/13 04:32:45;;;;;;;50.90;24.80;;;;;;;12.70;82.67;98912.26;105315;1261;61196;-22
2023/06/13 04:35:21;;;;;;;49.50;25.30;;;;;;;12.22;84.96;98910.20;105438;1254;73865;-22
2023/06/13 04:37:51;;;;;;;24.60;12.70;;;;;;;12.38;85.82;98912.21;105294;1261;74262;-22
2023/06/13 04:40:19;;;;;;;31.40;17.00;;;;;;;12.14;86.35;98911.92;105601;1254;72482;-22
2023/06/13 04:42:52;;;;;;;16.10;9.10;;;;;;;12.16;87.36;98914.37;105552;1255;61102;-22
2023/06/13 04:45:20;;;;;;;22.90;11.30;;;;;;;12.77;84.35;98909.33;105511;1254;61179;-22
2023/06/13 04:47:48;;;;;;;34.80;19.80;;;;;;;12.93;81.65;98912.46;105535;1253;72610;-22
2023/06/13 04:50:28;;;;;;;100.00;49.30;;;;;;;12.62;82.74;98914.06;105587;1259;74399;-22
2023/06/13 04:52:55;;;;;;;20.10;10.40;;;;;;;12.37;84.56;98911.13;105563;1254;72486;-22
2023/06/13 04:55:25;;;;;;;80.50;39.70;;;;;;;12.39;84.50;98913.50;105708;1254;61008;-24
2023/06/13 04:57:51;;;;;;;20.00;11.30;;;;;;;12.33;85.35;98912.35;105552;1254;61144;-21
2023/06/13 05:00:19;;;;;;;24.70;12.70;;;;;;;12.53;85.83;98912.09;105494;1259;73828;-21
2023/06/13 05:02:47;;;;;;;10.60;5.90;;;;;;;12.63;83.95;98909.39;105300;1262;73283;-21
2023/06/13 05:05:16;;;;;;;23.30;12.90;;;;;;;12.54;83.34;98910.38;105688;1254;72651;-22
2023/06/13 05:07:44;;;;;;;33.90;17.30;;;;;;;12.58;82.93;98913.70;105708;1254;61580;-22
2023/06/13 05:10:12;;;;;;;24.90;11.60;;;;;;;12.58;83.43;98914.74;105681;1259;61157;-22
2023/06/13 05:12:43;;;;;;;44.50;21.60;;;;;;;12.45;83.88;98914.91;105736;1254;73846;-22
2023/06/13 05:15:10;;;;;;;29.00;15.10;;;;;;;12.59;84.48;98913.23;105594;1254;74298;-22
2023/06/13 05:17:38;;;;;;;7.50;3.60;;;;;;;12.39;83.98;98911.25;105656;1254;72650;-21
2023/06/13 05:20:06;;;;;;;12.00;6.10;;;;;;;12.79;83.56;98908.83;105610;1254;61061;-22
2023/06/13 05:22:33;;;;;;;43.50;21.10;;;;;;;12.66;82.54;98909.80;105475;1263;61186;-23
2023/06/13 05:25:01;;;;;;;24.80;12.70;;;;;;;12.79;83.38;98909.15;105220;1262;73860;-21
2023/06/13 05:27:28;;;;;;;38.40;19.00;;;;;;;12.95;82.88;98907.20;105615;1254;74777;-21
2023/06/13 05:29:55;;;;;;;36.20;19.30;;;;;;;12.50;83.37;98907.14;105477;1254;72654;-21
2023/06/13 05:32:23;;;;;;;24.70;11.70;;;;;;;12.44;84.43;98911.72;105570;1253;61796;-21
2023/06/13 05:34:50;;;;;;;9.60;5.20;;;;;;;12.58;83.15;98907.31;105591;1258;61115;-22
2023/06/13 05:37:17;;;;;;;17.20;8.90;;;;;;;12.87;81.91;98905.98;105606;1253;73915;-23
2023/06/13 05:39:44;;;;;;;29.50;20.50;;;;;;;12.89;81.36;98903.02;105492;1254;74212;-23
2023/06/13 05:42:11;;;;;;;27.90;17.80;;;;;;;12.59;82.89;98905.06;105667;1254;73162;-23
2023/06/13 05:44:39;;;;;;;23.60;12.30;;;;;;;12.91;82.67;98905.65;105650;1257;61060;-23
2023/06/13 05:47:06;;;;;;;16.70;5.90;;;;;;;12.94;82.75;98908.16;105555;1259;61169;-23
2023/06/13 05:49:34;;;;;;;20.40;8.70;;;;;;;13.48;81.48;98904.67;105671;1259;73822;-23
2023/06/13 05:52:01;;;;;;;24.90;12.90;;;;;;;13.89;79.63;98899.55;105602;1254;74624;-22
2023/06/13 05:54:28;;;;;;;7.50;4.80;;;;;;;14.28;77.76;98901.64;105379;1261;72651;-22
2023/06/13 05:56:55;;;;;;;7.40;3.80;;;;;;;14.31;77.17;98902.73;105576;1254;61043;-22
2023/06/13 05:59:22;;;;;;;37.90;18.50;;;;;;;14.12;76.91;98901.64;105666;1259;61177;-22
2023/06/13 06:01:49;;;;;;;15.00;7.60;;;;;;;13.50;78.74;98899.80;105494;1259;74430;-22
2023/06/13 06:04:16;;;;;;;6.40;4.20;;;;;;;13.79;78.58;98898.43;105513;1254;74288;-23
2023/06/13 06:06:44;;;;;;;6.70;2.50;;;;;;;13.80;78.89;98896.55;105572;1253;72517;-22
2023/06/13 06:09:12;;;;;;;4.40;2.30;;;;;;;14.17;76.14;98895.05;105461;1254;61199;-23
2023/06/13 06:11:38;;;;;;;5.00;3.20;;;;;;;14.67;75.44;98894.50;105638;1257;61160;-22
2023/06/13 06:14:05;;;;;;;4.60;2.90;;;;;;;14.84;73.53;98895.10;105519;1254;73688;-22
2023/06/13 06:16:32;;;;;;;7.20;2.80;;;;;;;14.47;73.67;98895.80;105694;1259;75024;-23
2023/06/13 06:18:59;;;;;;;9.30;5.10;;;;;;;14.10;75.70;98894.92;105617;1259;73154;-22
2023/06/13 06:21:26;;;;;;;17.30;4.70;;;;;;;13.83;76.03;98898.92;105674;1253;61062;-22
2023/06/13 06:23:54;;;;;;;6.40;3.00;;;;;;;13.71;76.84;98900.38;105427;1260;61131;-22
2023/06/13 06:26:22;;;;;;;5.00;2.80;;;;;;;13.54;77.40;98900.95;105642;1259;73904;-22
2023/06/13 06:28:49;;;;;;;8.60;3.20;;;;;;;13.78;76.02;98898.16;105451;1254;74589;-22
2023/06/13 06:31:16;;;;;;;8.20;3.50;;;;;;;13.65;76.56;98893.30;105584;1259;71557;-23
2023/06/13 06:33:43;;;;;;;29.30;17.60;;;;;;;14.05;76.48;98893.23;105626;1255;61026;-23
2023/06/13 06:36:10;;;;;;;7.00;4.40;;;;;;;14.30;75.74;98888.50;105692;1260;61177;-23
2023/06/13 06:38:40;;;;;;;5.20;2.90;;;;;;;13.96;76.10;98893.25;105653;1254;73776;-23
2023/06/13 06:41:06;;;;;;;3.70;2.00;;;;;;;13.86;75.60;98889.34;105689;1258;74332;-23
2023/06/13 06:43:34;;;;;;;2.20;1.50;;;;;;;13.58;76.79;98885.45;105677;1254;73063;-23
2023/06/13 06:46:08;;;;;;;23.70;9.80;;;;;;;14.10;77.08;98881.44;105559;1254;61194;-23
2023/06/13 06:48:38;;;;;;;27.90;11.10;;;;;;;14.72;74.08;98879.50;105445;1259;61160;-23
2023/06/13 06:51:05;;;;;;;20.30;5.20;;;;;;;14.47;72.38;98881.98;105237;1254;73831;-23
2023/06/13 06:53:33;;;;;;;6.60;3.30;;;;;;;14.06;74.51;98884.98;105662;1254;73707;-23
2023/06/13 06:56:00;;;;;;;15.80;7.70;;;;;;;14.51;74.08;98886.67;105645;1253;71123;-23
2023/06/13 06:58:29;;;;;;;5.90;2.80;;;;;;;14.52;72.85;98885.30;105693;1260;61166;-23
2023/06/13 07:00:57;;;;;;;3.50;2.50;;;;;;;14.43;73.46;98886.69;105608;1259;61147;-23
2023/06/13 07:03:24;;;;;;;11.10;6.00;;;;;;;14.54;73.92;98886.86;105542;1259;73881;-23
2023/06/13 07:05:51;;;;;;;4.10;1.50;;;;;;;14.70;73.70;98886.98;105579;1259;74766;-23
2023/06/13 07:08:18;;;;;;;5.80;1.30;;;;;;;15.31;70.92;98884.64;105560;1254;72683;-23
2023/06/13 07:10:45;;;;;;;3.80;1.50;;;;;;;15.87;68.50;98885.17;105559;1254;61083;-24
2023/06/13 07:13:12;;;;;;;7.20;1.90;;;;;;;16.02;68.40;98886.71;105620;1259;61297;-23
2023/06/13 07:15:39;;;;;;;7.60;1.90;;;;;;;15.98;68.79;98886.71;105693;1259;73641;-23
2023/06/13 07:18:08;;;;;;;5.00;1.50;;;;;;;15.91;68.35;98889.34;105667;1257;74177;-23
2023/06/13 07:20:35;;;;;;;3.00;1.70;;;;;;;15.84;68.32;98884.66;105733;1253;72712;-23
2023/06/13 07:23:02;;;;;;;3.20;1.60;;;;;;;15.66;66.60;98882.63;105546;1259;61214;-23
2023/06/13 07:25:30;;;;;;;3.10;1.50;;;;;;;15.48;66.84;98878.92;105693;1267;61077;-23
2023/06/13 07:27:57;;;;;;;3.20;1.50;;;;;;;15.41;67.95;98883.31;105595;1259;73857;-23
2023/06/13 07:30:24;;;;;;;7.90;3.10;;;;;;;15.28;67.10;98880.45;105687;1259;74357;-23
2023/06/13 07:32:51;;;;;;;6.00;1.80;;;;;;;15.05;67.43;98878.27;105366;1260;72652;-23
2023/06/13 07:35:23;;;;;;;3.20;2.00;;;;;;;14.81;67.87;98880.66;105542;1259;61085;-23
2023/06/13 07:37:52;;;;;;;7.60;2.10;;;;;;;14.83;68.87;98885.02;105727;1258;61116;-23
2023/06/13 07:40:21;;;;;;;2.00;1.30;;;;;;;15.26;68.85;98885.16;105686;1258;73585;-23
2023/06/13 07:42:48;;;;;;;2.50;1.30;;;;;;;15.87;65.74;98886.91;105672;1254;73003;-23
2023/06/13 07:45:16;;;;;;;6.60;2.30;;;;;;;16.06;63.63;98887.16;105563;1259;72642;-23
2023/06/13 07:47:43;;;;;;;4.50;1.60;;;;;;;15.91;63.34;98889.35;105637;1259;61207;-22
2023/06/13 07:50:10;;;;;;;4.60;3.00;;;;;;;15.75;64.51;98883.30;105682;1267;61157;-23
2023/06/13 07:52:37;;;;;;;21.70;11.50;;;;;;;15.54;64.11;98878.99;105679;1255;73824;-23
2023/06/13 07:55:05;;;;;;;8.00;5.10;;;;;;;15.49;63.01;98872.69;105704;1259;74361;-23
2023/06/13 07:57:32;;;;;;;22.70;10.10;;;;;;;15.45;64.43;98871.54;105571;1259;73115;-22
2023/06/13 08:00:19;;;;;;;5.90;3.00;;;;;;;15.95;64.59;98872.03;105414;1254;61106;-22
2023/06/13 08:02:48;;;;;;;8.90;2.10;;;;;;;16.24;62.94;98872.71;105460;1258;61285;-24
2023/06/13 08:05:15;;;;;;;24.00;13.60;;;;;;;15.86;62.83;98872.55;105600;1259;73798;-22
2023/06/13 08:07:43;;;;;;;6.80;2.30;;;;;;;16.13;63.62;98870.48;105686;1259;74287;-22
2023/06/13 08:10:10;;;;;;;4.80;1.70;;;;;;;16.55;62.65;98867.77;105671;1260;72474;-22
2023/06/13 08:12:39;;;;;;;2.90;1.60;;;;;;;16.63;62.18;98866.63;105709;1260;61167;-22
2023/06/13 08:15:07;;;;;;;4.60;1.90;;;;;;;16.61;61.26;98866.27;105668;1267;61222;-22
2023/06/13 08:17:41;;;;;;;18.20;6.50;;;;;;;16.27;61.11;98869.71;105490;1260;73954;-23
2023/06/13 08:20:09;;;;;;;10.60;6.20;;;;;;;15.74;62.57;98869.91;105605;1263;74343;-22
2023/06/13 08:22:38;;;;;;;7.30;3.40;;;;;;;16.17;62.46;98869.23;105627;1256;72674;-24
2023/06/13 08:25:08;;;;;;;7.80;3.10;;;;;;;16.35;61.91;98864.88;105625;1260;61062;-22
2023/06/13 08:27:39;;;;;;;2.50;1.90;;;;;;;16.43;62.02;98866.48;105656;1259;61170;-21
2023/06/13 08:30:07;;;;;;;7.50;3.60;;;;;;;16.05;61.89;98865.44;105332;1263;73992;-22
2023/06/13 08:32:35;;;;;;;4.60;2.10;;;;;;;16.03;61.86;98868.41;105534;1260;74212;-22
2023/06/13 08:35:04;;;;;;;12.40;6.90;;;;;;;16.22;61.02;98869.20;105475;1259;72914;-22
2023/06/13 08:37:31;;;;;;;24.00;11.10;;;;;;;15.90;61.49;98870.19;105581;1260;61117;-22
2023/06/13 08:39:58;;;;;;;13.60;7.60;;;;;;;16.21;61.68;98869.86;105697;1255;61093;-22
2023/06/13 08:42:25;;;;;;;5.60;3.40;;;;;;;15.95;61.36;98870.18;105720;1258;74418;-22
2023/06/13 08:44:51;;;;;;;7.30;4.00;;;;;;;15.97;60.60;98868.27;105703;1254;74425;-22
2023/06/13 08:47:18;;;;;;;4.60;2.30;;;;;;;16.33;59.93;98869.05;105648;1259;72501;-24
2023/06/13 08:50:04;;;;;;;8.80;4.90;;;;;;;16.17;59.23;98872.36;105494;1259;61097;-23
2023/06/13 08:52:39;;;;;;;9.30;3.10;;;;;;;15.84;60.35;98870.09;105581;1259;61208;-22
2023/06/13 08:55:16;;;;;;;5.70;2.70;;;;;;;15.63;61.71;98874.09;105632;1259;73795;-22
2023/06/13 08:58:04;;;;;;;6.10;2.70;;;;;;;16.04;61.72;98879.67;105641;1263;74343;-22
2023/06/13 09:00:35;;;;;;;25.80;5.70;;;;;;;16.34;60.91;98877.79;105618;1259;72538;-23
2023/06/13 09:03:03;;;;;;;40.50;21.40;;;;;;;16.63;60.74;98868.17;105639;1259;61080;-22
2023/06/13 09:05:31;;;;;;;13.20;7.30;;;;;;;16.48;60.16;98865.67;105644;1259;61191;-22
2023/06/13 09:07:58;;;;;;;8.00;3.30;;;;;;;16.87;60.28;98861.98;105591;1261;73810;-23
2023/06/13 09:10:46;;;;;;;4.20;2.50;;;;;;;17.16;59.64;98856.38;105429;1264;74102;-22
2023/06/13 09:13:15;;;;;;;6.60;2.10;;;;;;;17.53;57.86;98846.25;105548;1254;72879;-22
2023/06/13 09:15:43;;;;;;;5.50;2.20;;;;;;;17.77;56.99;98852.33;103700;1260;2551724;-23
2023/06/13 09:18:11;;;;;;;2.70;2.10;;;;;;;18.15;55.39;98847.30;105499;1255;61183;-24
2023/06/13 09:20:38;;;;;;;4.70;2.00;;;;;;;18.37;55.12;98850.05;105467;1260;73935;-23
2023/06/13 09:23:05;;;;;;;5.80;2.40;;;;;;;17.76;54.15;98848.27;105548;1255;74879;-23
2023/06/13 09:25:33;;;;;;;4.80;2.20;;;;;;;17.97;55.24;98853.45;105574;1254;73254;-22
2023/06/13 09:28:40;;;;;;;9.10;4.20;;;;;;;17.85;54.57;98848.81;105521;1255;61067;-22
2023/06/13 09:31:07;;;;;;;6.80;2.10;;;;;;;17.66;55.86;98852.88;105725;1257;61049;-22
2023/06/13 09:33:35;;;;;;;3.10;2.30;;;;;;;17.91;55.02;98853.17;105638;1261;72575;-22
2023/06/13 09:36:03;;;;;;;7.70;4.20;;;;;;;17.57;54.14;98852.84;105563;1259;75445;-22
2023/06/13 09:38:37;;;;;;;15.20;7.60;;;;;;;17.23;55.78;98845.20;105391;1254;71505;-22
2023/06/13 09:41:04;;;;;;;10.10;4.80;;;;;;;17.16;56.92;98847.99;105386;1255;61136;-22
2023/06/13 09:43:32;;;;;;;7.00;2.70;;;;;;;17.41;57.16;98847.95;105582;1267;61144;-23
2023/06/13 09:46:01;;;;;;;5.40;3.50;;;;;;;16.78;56.82;98852.92;105592;1258;73945;-23
2023/06/13 09:48:28;;;;;;;5.80;2.70;;;;;;;16.52;57.99;98853.57;105662;1259;74478;-23
2023/06/13 09:50:55;;;;;;;4.60;2.50;;;;;;;16.91;57.41;98853.36;105433;1260;72620;-24
2023/06/13 09:53:22;;;;;;;5.60;2.30;;;;;;;16.98;56.41;98849.95;105331;1261;61130;-23
2023/06/13 09:55:49;;;;;;;16.20;8.30;;;;;;;17.12;56.46;98848.45;105276;1261;61411;-23
2023/06/13 09:58:17;;;;;;;6.50;2.90;;;;;;;16.75;56.88;98845.65;105508;1260;73794;-23
2023/06/13 10:01:00;;;;;;;26.00;13.70;;;;;;;16.96;56.83;98839.95;105401;1259;74306;-24
2023/06/13 10:03:28;;;;;;;5.00;2.70;;;;;;;17.08;57.06;98839.59;105229;1270;72631;-23
2023/06/13 10:05:59;;;;;;;6.70;2.60;;;;;;;17.21;57.21;98838.86;105592;1255;61188;-23
2023/06/13 10:08:27;;;;;;;3.30;2.20;;;;;;;17.31;55.78;98832.29;105641;1254;61056;-23
2023/06/13 10:10:54;;;;;;;4.20;2.20;;;;;;;17.32;56.46;98831.42;105707;1254;74420;-23
2023/06/13 10:13:29;;;;;;;2.90;1.70;;;;;;;17.20;56.56;98834.36;105585;1260;74402;-23
2023/06/13 10:16:00;;;;;;;5.90;2.00;;;;;;;17.07;57.04;98831.30;105610;1260;70551;-24
2023/06/13 10:18:31;;;;;;;2.50;1.80;;;;;;;17.32;56.77;98831.79;105647;1260;61105;-24
2023/06/13 10:20:57;;;;;;;3.80;1.70;;;;;;;17.61;57.15;98835.90;105634;1261;61122;-23
2023/06/13 10:23:26;;;;;;;3.20;1.70;;;;;;;17.90;56.43;98832.90;105680;1260;73674;-23
2023/06/13 10:25:53;;;;;;;9.40;6.30;;;;;;;18.00;55.74;98834.63;105729;1259;74208;-24
2023/06/13 10:28:32;;;;;;;13.30;7.90;;;;;;;18.10;54.51;98836.15;105675;1260;72635;-23
2023/06/13 10:31:26;;;;;;;5.70;3.80;;;;;;;18.17;53.68;98837.96;105633;1255;61054;-22
2023/06/13 10:33:53;;;;;;;3.20;2.20;;;;;;;18.38;53.53;98840.05;105687;1255;61397;-23
2023/06/13 10:36:25;;;;;;;7.20;2.60;;;;;;;18.08;54.29;98837.51;105664;1260;73901;-23
2023/06/13 10:39:11;;;;;;;11.30;3.70;;;;;;;18.01;55.89;98835.56;105685;1254;74141;-23
2023/06/13 10:41:59;;;;;;;13.40;7.60;;;;;;;17.75;57.11;98832.93;105639;1260;72411;-23
2023/06/13 10:44:32;;;;;;;32.80;15.60;;;;;;;17.57;57.16;98833.77;105669;1255;61231;-23
2023/06/13 10:47:02;;;;;;;16.20;8.30;;;;;;;17.09;58.64;98842.38;105558;1260;61839;-23
2023/06/13 10:49:37;;;;;;;30.70;17.40;;;;;;;16.68;59.09;98843.92;105615;1254;73827;-24
2023/06/13 10:52:09;;;;;;;4.00;3.00;;;;;;;16.42;60.09;98845.36;105670;1261;74496;-23
2023/06/13 10:54:36;;;;;;;4.70;2.60;;;;;;;16.61;59.32;98839.75;105656;1254;72549;-23
2023/06/13 10:57:05;;;;;;;3.10;2.10;;;;;;;16.34;60.15;98837.06;105540;1260;61052;-23
2023/06/13 10:59:40;;;;;;;21.80;12.70;;;;;;;15.95;61.72;98832.18;105600;1260;61196;-23
2023/06/13 11:02:14;;;;;;;9.50;5.80;;;;;;;16.03;62.29;98830.13;105542;1254;73848;-23
2023/06/13 11:04:48;;;;;;;6.60;2.90;;;;;;;16.10;61.87;98825.52;105211;1263;74354;-23
2023/06/13 11:07:25;;;;;;;16.60;9.90;;;;;;;16.03;63.36;98825.42;105446;1260;72707;-23
2023/06/13 11:10:02;;;;;;;7.50;3.50;;;;;;;16.29;61.85;98826.35;105581;1260;61167;-23
2023/06/13 11:12:30;;;;;;;23.10;12.00;;;;;;;16.32;61.85;98832.48;105579;1260;61172;-23
2023/06/13 11:14:59;;;;;;;16.90;8.80;;;;;;;16.10;62.55;98835.16;105634;1260;73836;-23
2023/06/13 11:17:26;;;;;;;14.30;9.00;;;;;;;16.03;62.49;98832.91;105551;1257;74373;-32
2023/06/13 11:19:55;;;;;;;24.90;12.10;;;;;;;15.88;62.28;98830.76;105469;1259;72651;-23
2023/06/13 11:22:23;;;;;;;17.30;9.00;;;;;;;15.79;62.15;98829.12;105382;1261;61195;-23
2023/06/13 11:24:52;;;;;;;7.70;5.40;;;;;;;15.60;62.95;98830.58;105600;1260;61109;-23
2023/06/13 11:27:19;;;;;;;17.80;9.10;;;;;;;15.75;63.15;98824.42;105616;1261;73846;-23
2023/06/13 11:29:46;;;;;;;6.80;4.30;;;;;;;16.01;62.11;98826.52;105567;1257;74967;-23